createdAt,value
2023-02-27T00:03:29.939Z,96944.63
2023-02-27T00:08:23.822Z,96945.31
2023-02-27T00:13:19.023Z,96943.78
2023-02-27T00:18:12.440Z,96949.16
2023-02-27T00:23:07.026Z,96947.53
2023-02-27T00:28:00.442Z,96961.06
2023-02-27T00:32:56.022Z,96954.09
2023-02-27T00:37:50.150Z,96950.84
2023-02-27T00:42:43.513Z,96954.38
2023-02-27T00:47:37.412Z,96959.03
2023-02-27T00:52:33.764Z,96966.22
2023-02-27T00:57:28.084Z,96963.69
2023-02-27T01:02:21.511Z,96948.38
2023-02-27T01:07:15.357Z,96954.25
2023-02-27T01:12:10.697Z,96947.06
2023-02-27T01:17:04.420Z,96934.16
2023-02-27T01:21:57.877Z,96930.59
2023-02-27T01:26:52.603Z,96928.34
2023-02-27T01:31:49.066Z,96929.16
2023-02-27T01:36:44.368Z,96928.47
2023-02-27T01:41:38.054Z,96917.53
2023-02-27T01:46:33.429Z,96927.41
2023-02-27T01:51:37.176Z,96933.41
2023-02-27T01:56:33.020Z,96951.81
2023-02-27T02:01:27.896Z,96946.84
2023-02-27T02:06:25.837Z,96943.38
2023-02-27T02:11:23.076Z,96933.75
2023-02-27T02:16:46.327Z,96922.97
2023-02-27T02:22:35.778Z,96938.56
2023-02-27T02:27:55.340Z,96934.13
2023-02-27T02:33:46.879Z,96939.91
2023-02-27T02:39:09.138Z,96933.16
2023-02-27T02:44:17.524Z,96934.59
2023-02-27T02:49:22.498Z,96939.38
2023-02-27T02:54:27.096Z,96940.97
2023-02-27T02:59:28.243Z,96944.69
2023-02-27T03:04:28.939Z,96944.34
2023-02-27T03:09:35.825Z,96932.81
2023-02-27T03:14:37.178Z,96934.31
2023-02-27T03:19:39.007Z,96939.59
2023-02-27T03:24:41.143Z,96946.84
2023-02-27T03:29:43.797Z,96953.72
2023-02-27T03:34:43.106Z,96948.44
2023-02-27T03:39:47.840Z,96951.28
2023-02-27T03:44:56.255Z,96949.28
2023-02-27T03:49:51.874Z,96958.63
2023-02-27T03:54:54.688Z,96953.63
2023-02-27T03:59:48.086Z,96953.84
2023-02-27T04:04:41.559Z,96960.66
2023-02-27T04:10:15.530Z,96981.59
2023-02-27T04:15:24.899Z,96972.63
2023-02-27T04:20:37.029Z,96982.81
2023-02-27T04:26:05.553Z,96980.38
2023-02-27T04:31:15.857Z,96981.94
2023-02-27T04:36:17.688Z,96973.47
2023-02-27T04:41:21.817Z,96980.75
2023-02-27T04:46:22.493Z,96981.28
2023-02-27T04:51:21.180Z,96980.22
2023-02-27T04:56:23.370Z,96979.16
2023-02-27T05:01:23.505Z,96989.78
2023-02-27T05:06:23.211Z,96979.75
2023-02-27T05:11:28.315Z,96978.84
2023-02-27T05:16:29.652Z,96981.63
2023-02-27T05:21:30.723Z,96984.22
2023-02-27T05:26:42.033Z,96989.38
2023-02-27T05:31:48.033Z,96986.91
2023-02-27T05:36:48.964Z,96983.56
2023-02-27T05:41:51.429Z,96992.84
2023-02-27T05:46:53.301Z,96978.91
2023-02-27T05:51:51.430Z,96986.78
2023-02-27T05:56:51.135Z,96987.19
2023-02-27T06:01:46.366Z,96994.72
2023-02-27T06:06:42.031Z,97002.25
2023-02-27T06:11:35.418Z,96988.13
2023-02-27T06:16:30.563Z,96998.69
2023-02-27T06:21:23.986Z,96999.47
2023-02-27T06:26:17.931Z,97008.22
2023-02-27T06:31:11.302Z,97020.19
2023-02-27T06:36:06.457Z,97010.97
2023-02-27T06:40:59.981Z,97006.69
2023-02-27T06:45:55.716Z,97018.53
2023-02-27T06:50:53.933Z,97021.13
2023-02-27T06:55:49.430Z,97020.75
2023-02-27T07:00:43.195Z,97023.31
2023-02-27T07:05:36.569Z,97034.00
2023-02-27T07:10:29.949Z,97040.69
2023-02-27T07:15:24.869Z,97043.47
2023-02-27T07:20:18.468Z,97046.34
2023-02-27T07:25:12.022Z,97050.66
2023-02-27T07:30:06.261Z,97056.16
2023-02-27T07:35:00.890Z,97056.38
2023-02-27T07:39:54.162Z,97059.19
2023-02-27T07:44:47.413Z,97062.50
2023-02-27T07:49:40.682Z,97062.47
2023-02-27T07:54:37.585Z,97064.44
2023-02-27T07:59:30.956Z,97071.53
2023-02-27T08:04:24.614Z,97072.78
2023-02-27T08:09:18.319Z,97078.94
2023-02-27T08:14:13.009Z,97073.63
2023-02-27T08:19:06.375Z,97084.72
2023-02-27T08:23:59.890Z,97091.53
2023-02-27T08:28:53.500Z,97093.63
2023-02-27T08:33:49.628Z,97101.97
2023-02-27T08:38:46.465Z,97098.91
2023-02-27T08:43:39.734Z,97091.56
2023-02-27T08:48:33.049Z,97101.97
2023-02-27T08:53:28.343Z,97103.41
2023-02-27T08:58:22.070Z,97102.66
2023-02-27T09:03:16.623Z,97114.75
2023-02-27T09:08:09.964Z,97118.84
2023-02-27T09:13:04.635Z,97112.09
2023-02-27T09:18:02.829Z,97121.66
2023-02-27T09:22:56.237Z,97133.72
2023-02-27T09:27:49.551Z,97135.75
2023-02-27T09:32:44.277Z,97136.28
2023-02-27T09:37:37.793Z,97142.53
2023-02-27T09:42:42.153Z,97147.38
2023-02-27T09:47:41.703Z,97151.34
2023-02-27T09:52:38.908Z,97162.66
2023-02-27T09:57:50.923Z,97173.84
2023-02-27T10:02:57.477Z,97171.38
2023-02-27T10:08:04.821Z,97186.44
2023-02-27T10:13:37.615Z,97196.25
2023-02-27T10:18:36.768Z,97196.56
2023-02-27T10:23:42.380Z,97205.28
2023-02-27T10:28:36.067Z,97207.06
2023-02-27T10:33:37.156Z,97216.16
2023-02-27T10:38:40.040Z,97219.81
2023-02-27T10:43:33.416Z,97213.59
2023-02-27T10:48:26.728Z,97236.31
2023-02-27T10:53:23.083Z,97234.00
2023-02-27T10:58:21.679Z,97232.72
2023-02-27T11:03:22.987Z,97242.84
2023-02-27T11:08:27.097Z,97246.09
2023-02-27T11:13:26.168Z,97240.84
2023-02-27T11:18:29.266Z,97245.94
2023-02-27T11:23:26.406Z,97249.97
2023-02-27T11:28:28.351Z,97238.13
2023-02-27T11:33:22.954Z,97238.22
2023-02-27T11:38:23.431Z,97244.03
2023-02-27T11:43:22.749Z,97247.78
2023-02-27T11:48:24.591Z,97244.81
2023-02-27T11:54:10.931Z,97242.25
2023-02-27T11:59:21.719Z,97246.94
2023-02-27T12:04:25.910Z,97242.91
2023-02-27T12:09:38.964Z,97244.72
2023-02-27T12:14:50.179Z,97251.22
2023-02-27T12:19:59.224Z,97259.72
2023-02-27T12:25:01.531Z,97252.47
2023-02-27T12:30:03.630Z,97254.09
2023-02-27T12:35:06.546Z,97259.56
2023-02-27T12:40:07.252Z,97266.41
2023-02-27T12:45:43.885Z,97266.69
2023-02-27T12:50:55.298Z,97277.81
2023-02-27T12:55:55.930Z,97272.50
2023-02-27T13:00:59.845Z,97278.47
2023-02-27T13:06:07.471Z,97277.56
2023-02-27T13:11:12.410Z,97281.34
2023-02-27T13:16:16.418Z,97282.38
2023-02-27T13:21:20.305Z,97274.69
2023-02-27T13:26:21.846Z,97289.34
2023-02-27T13:31:31.062Z,97277.84
2023-02-27T13:36:33.180Z,97272.25
2023-02-27T13:41:40.176Z,97270.00
2023-02-27T13:46:35.176Z,97282.63
2023-02-27T13:51:49.344Z,97272.31
2023-02-27T13:56:46.973Z,97283.06
2023-02-27T14:01:41.162Z,97281.81
2023-02-27T14:06:43.023Z,97279.22
2023-02-27T14:11:40.425Z,97277.81
2023-02-27T14:17:07.169Z,97290.06
2023-02-27T14:22:03.191Z,97280.72
2023-02-27T14:26:59.002Z,97288.50
2023-02-27T14:31:55.202Z,97287.59
2023-02-27T14:36:53.638Z,97285.41
2023-02-27T14:41:59.180Z,97281.31
2023-02-27T14:46:56.894Z,97282.97
2023-02-27T14:51:51.293Z,97279.84
2023-02-27T14:56:55.924Z,97284.72
2023-02-27T15:01:49.772Z,97299.59
2023-02-27T15:06:48.777Z,97296.53
2023-02-27T15:11:44.791Z,97307.00
2023-02-27T15:16:43.020Z,97298.72
2023-02-27T15:21:44.429Z,97303.16
2023-02-27T15:26:41.565Z,97312.78
2023-02-27T15:31:36.360Z,97315.22
2023-02-27T15:36:33.357Z,97313.13
2023-02-27T15:41:28.309Z,97328.50
2023-02-27T15:46:21.998Z,97320.13
2023-02-27T15:51:15.273Z,97332.66
2023-02-27T15:56:14.011Z,97336.50
2023-02-27T16:01:18.327Z,97343.63
2023-02-27T16:06:17.865Z,97347.41
2023-02-27T16:11:20.391Z,97352.25
2023-02-27T16:16:35.369Z,97363.44
2023-02-27T16:21:32.223Z,97371.22
2023-02-27T16:26:31.788Z,97382.31
2023-02-27T16:31:31.089Z,97385.03
2023-02-27T16:36:27.253Z,97383.19
2023-02-27T16:41:24.427Z,97388.41
2023-02-27T16:46:21.091Z,97388.34
2023-02-27T16:51:20.261Z,97394.53
2023-02-27T16:56:13.786Z,97389.31
2023-02-27T17:01:08.413Z,97396.19
2023-02-27T17:06:03.890Z,97407.81
2023-02-27T17:10:59.146Z,97402.28
2023-02-27T17:15:52.463Z,97409.72
2023-02-27T17:20:45.739Z,97428.50
2023-02-27T17:25:40.969Z,97422.28
2023-02-27T17:30:36.202Z,97429.22
2023-02-27T17:35:30.224Z,97440.97
2023-02-27T17:40:23.851Z,97449.44
2023-02-27T17:45:17.376Z,97452.44
2023-02-27T17:50:13.222Z,97469.16
2023-02-27T17:55:08.639Z,97474.56
2023-02-27T18:00:04.253Z,97478.88
2023-02-27T18:04:59.865Z,97485.81
2023-02-27T18:09:54.538Z,97482.44
2023-02-27T18:14:47.853Z,97493.94
2023-02-27T18:19:42.556Z,97490.13
2023-02-27T18:24:35.989Z,97496.31
2023-02-27T18:29:30.964Z,97507.53
2023-02-27T18:34:25.489Z,97506.69
2023-02-27T18:39:19.271Z,97508.53
2023-02-27T18:44:12.703Z,97506.22
2023-02-27T18:49:07.897Z,97510.44
2023-02-27T18:54:01.467Z,97517.13
2023-02-27T18:59:02.049Z,97515.66
2023-02-27T19:04:03.326Z,97500.16
2023-02-27T19:08:58.595Z,97506.84
2023-02-27T19:13:52.386Z,97500.13
2023-02-27T19:18:45.804Z,97508.41
2023-02-27T19:23:39.337Z,97515.44
2023-02-27T19:28:34.821Z,97511.50
2023-02-27T19:33:28.517Z,97512.44
2023-02-27T19:38:22.066Z,97502.75
2023-02-27T19:43:15.455Z,97502.63
2023-02-27T19:48:12.030Z,97493.03
2023-02-27T19:53:05.471Z,97502.34
2023-02-27T19:57:58.969Z,97484.69
2023-02-27T20:02:52.324Z,97499.31
2023-02-27T20:07:48.368Z,97494.56
2023-02-27T20:12:41.844Z,97479.50
2023-02-27T20:17:35.441Z,97487.22
2023-02-27T20:22:28.854Z,97485.66
2023-02-27T20:27:23.578Z,97482.06
2023-02-27T20:32:21.053Z,97486.91
2023-02-27T20:37:14.927Z,97464.19
2023-02-27T20:42:08.312Z,97473.53
2023-02-27T20:47:03.350Z,97471.13
2023-02-27T20:51:58.351Z,97463.22
2023-02-27T20:56:54.000Z,97456.88
2023-02-27T21:01:51.607Z,97454.81
2023-02-27T21:06:46.706Z,97458.84
2023-02-27T21:11:42.881Z,97452.81
2023-02-27T21:16:37.231Z,97450.78
2023-02-27T21:21:33.217Z,97448.88
2023-02-27T21:26:35.327Z,97448.22
2023-02-27T21:31:42.962Z,97448.53
2023-02-27T21:36:44.321Z,97446.41
2023-02-27T21:41:48.893Z,97441.41
2023-02-27T21:46:42.623Z,97422.53
2023-02-27T21:51:40.881Z,97422.53
2023-02-27T21:56:34.982Z,97424.78
2023-02-27T22:01:31.274Z,97427.34
2023-02-27T22:06:28.195Z,97427.47
2023-02-27T22:11:21.739Z,97417.59
2023-02-27T22:16:15.578Z,97410.34
2023-02-27T22:21:13.693Z,97418.72
2023-02-27T22:26:12.001Z,97417.66
2023-02-27T22:31:11.070Z,97422.97
2023-02-27T22:36:10.720Z,97416.81
2023-02-27T22:41:09.281Z,97410.47
2023-02-27T22:46:03.396Z,97408.19
2023-02-27T22:51:03.389Z,97405.03
2023-02-27T22:55:58.449Z,97405.03
2023-02-27T23:00:51.760Z,97402.97
2023-02-27T23:05:50.864Z,97397.44
2023-02-27T23:10:44.733Z,97398.03
2023-02-27T23:15:39.501Z,97399.31
2023-02-27T23:20:33.041Z,97397.75
2023-02-27T23:25:26.978Z,97394.03
2023-02-27T23:30:20.627Z,97397.19
2023-02-27T23:35:17.277Z,97395.91
2023-02-27T23:40:12.954Z,97391.31
2023-02-27T23:45:27.561Z,97392.66
2023-02-27T23:50:25.637Z,97399.22
2023-02-27T23:55:21.196Z,97389.44
